createdAt,value
2023-04-07T05:30:47.948Z,14.37
2023-04-07T05:33:15.997Z,14.30
2023-04-07T05:35:47.612Z,16.20
2023-04-07T05:38:17.189Z,14.33
2023-04-07T05:40:47.490Z,14.83
2023-04-07T05:43:22.285Z,15.20
2023-04-07T05:45:50.674Z,16.17
2023-04-07T05:48:18.921Z,15.60
2023-04-07T05:50:48.118Z,14.93
2023-04-07T05:53:19.862Z,15.40
2023-04-07T05:55:47.704Z,14.47
2023-04-07T05:58:24.667Z,14.30
2023-04-07T06:00:55.273Z,14.40
2023-04-07T06:03:23.313Z,14.27
2023-04-07T06:06:00.412Z,13.80
2023-04-07T06:08:29.124Z,15.13
2023-04-07T06:10:58.002Z,13.57
2023-04-07T06:13:25.643Z,13.67
2023-04-07T06:15:56.818Z,14.77
2023-04-07T06:18:25.016Z,14.23
2023-04-07T06:20:52.649Z,14.90
2023-04-07T06:23:20.223Z,14.70
2023-04-07T06:25:52.020Z,15.07
2023-04-07T06:28:20.051Z,14.93
2023-04-07T06:30:47.873Z,14.50
2023-04-07T06:33:16.619Z,15.37
2023-04-07T06:35:44.433Z,13.70
2023-04-07T06:38:12.611Z,16.20
2023-04-07T06:40:43.128Z,16.50
2023-04-07T06:43:10.972Z,15.97
2023-04-07T06:45:46.400Z,14.23
2023-04-07T06:48:14.112Z,16.03
2023-04-07T06:50:41.804Z,13.83
2023-04-07T06:53:09.389Z,16.07
2023-04-07T06:55:37.123Z,16.07
2023-04-07T06:58:04.812Z,16.57
2023-04-07T07:00:32.663Z,16.97
2023-04-07T07:03:00.527Z,15.33
2023-04-07T07:05:28.864Z,15.90
2023-04-07T07:07:56.572Z,16.70
2023-04-07T07:10:24.379Z,15.97
2023-04-07T07:12:52.776Z,17.00
2023-04-07T07:15:20.357Z,17.57
2023-04-07T07:17:47.976Z,16.67
2023-04-07T07:20:15.955Z,17.47
2023-04-07T07:22:43.951Z,17.77
2023-04-07T07:25:11.934Z,17.87
2023-04-07T07:27:40.629Z,16.60
2023-04-07T07:30:09.056Z,16.57
2023-04-07T07:32:36.942Z,17.17
2023-04-07T07:35:05.654Z,16.97
2023-04-07T07:37:33.615Z,17.83
2023-04-07T07:47:01.055Z,17.77
2023-04-07T08:10:56.383Z,18.00
2023-04-07T08:13:24.261Z,17.47
2023-04-07T08:15:51.984Z,16.37
2023-04-07T08:18:22.166Z,17.90
2023-04-07T08:20:51.741Z,17.43
2023-04-07T08:23:19.501Z,17.57
2023-04-07T08:25:47.735Z,17.87
2023-04-07T08:28:15.945Z,16.67
2023-04-07T08:30:43.942Z,17.17
2023-04-07T08:33:11.739Z,16.83
2023-04-07T08:35:39.428Z,17.83
2023-04-07T08:38:08.612Z,18.93
2023-04-07T08:40:36.588Z,18.60
2023-04-07T08:43:09.438Z,16.83
2023-04-07T08:45:42.235Z,17.23
2023-04-07T08:48:18.991Z,18.13
2023-04-07T08:50:49.527Z,17.23
2023-04-07T08:53:24.182Z,18.53
2023-04-07T08:55:53.477Z,18.67
2023-04-07T08:58:24.851Z,17.60
2023-04-07T09:00:54.005Z,17.23
2023-04-07T09:03:25.338Z,16.87
2023-04-07T09:05:54.405Z,17.17
2023-04-07T09:08:22.860Z,17.73
2023-04-07T09:16:19.110Z,18.13
2023-04-07T09:18:47.213Z,17.00
2023-04-07T09:21:16.280Z,18.10
2023-04-07T09:23:44.620Z,17.73
2023-04-07T09:26:19.311Z,18.53
2023-04-07T09:28:55.065Z,18.10
2023-04-07T09:31:26.682Z,17.73
2023-04-07T09:33:56.997Z,20.63
2023-04-07T09:36:31.350Z,20.57
2023-04-07T09:39:13.660Z,18.73
2023-04-07T09:41:42.097Z,19.47
2023-04-07T09:49:12.634Z,19.00
2023-04-07T09:51:59.906Z,19.97
2023-04-07T09:54:36.141Z,18.10
2023-04-07T09:57:08.963Z,18.33
2023-04-07T09:59:39.444Z,17.83
2023-04-07T10:02:09.146Z,17.53
2023-04-07T10:04:37.726Z,18.33
2023-04-07T10:07:06.792Z,17.27
2023-04-07T10:09:38.545Z,17.37
2023-04-07T10:12:07.238Z,18.23
2023-04-07T10:17:04.846Z,19.03
2023-04-07T10:22:18.849Z,17.37
2023-04-07T10:24:51.881Z,17.10
2023-04-07T10:27:22.935Z,17.00
2023-04-07T10:29:52.725Z,16.50
2023-04-07T10:32:20.692Z,16.20
2023-04-07T10:34:51.356Z,17.97
2023-04-07T10:37:21.464Z,17.60
2023-04-07T10:39:51.222Z,15.27
2023-04-07T10:42:38.109Z,16.17
2023-04-07T10:45:07.526Z,16.03
2023-04-07T10:48:04.665Z,15.83
2023-04-07T10:50:33.401Z,17.17
2023-04-07T10:53:13.493Z,17.20
2023-04-07T10:55:41.733Z,17.73
2023-04-07T10:58:22.904Z,16.40
2023-04-07T11:01:14.693Z,18.73
2023-04-07T11:03:54.280Z,18.37
2023-04-07T11:48:37.648Z,16.93
2023-04-07T11:51:25.204Z,13.70
2023-04-07T11:54:03.927Z,13.13
2023-04-07T12:23:20.165Z,12.03
2023-04-07T12:25:53.233Z,11.17
2023-04-07T12:28:25.910Z,11.63
2023-04-07T12:30:57.433Z,11.80
2023-04-07T12:33:32.382Z,10.37
2023-04-07T12:36:02.450Z,10.07
2023-04-07T12:38:34.340Z,10.33
2023-04-07T12:41:05.159Z,16.47
2023-04-07T12:43:35.018Z,10.07
2023-04-07T12:46:03.502Z,8.20
2023-04-07T12:48:32.045Z,10.00
2023-04-07T12:51:01.097Z,10.10
2023-04-07T13:28:27.785Z,53.63
2023-04-07T13:31:05.463Z,5.80
2023-04-07T13:33:34.537Z,5.97
2023-04-07T13:36:02.223Z,4.63
2023-04-07T13:57:32.596Z,5.43
2023-04-07T15:20:02.275Z,3.10
2023-04-07T15:22:34.965Z,3.97
2023-04-07T15:25:11.811Z,3.10
2023-04-07T15:27:44.056Z,3.17
2023-04-07T15:52:22.429Z,3.03
2023-04-07T16:07:57.983Z,2.50
2023-04-07T16:36:38.049Z,3.50
2023-04-07T16:52:50.270Z,3.50
2023-04-07T17:11:53.490Z,3.37
2023-04-07T17:14:27.071Z,2.80
2023-04-07T17:16:59.534Z,2.90
2023-04-07T17:19:28.595Z,3.37
2023-04-07T17:22:01.696Z,2.97
2023-04-07T17:25:25.963Z,2.90
2023-04-07T17:27:58.813Z,2.90
2023-04-07T17:30:27.338Z,2.60
2023-04-07T17:32:58.012Z,2.70
2023-04-07T17:35:28.614Z,2.73
2023-04-07T17:38:06.880Z,2.50
2023-04-07T17:40:41.330Z,2.37
2023-04-07T17:43:13.756Z,2.67
2023-04-07T17:45:46.989Z,4.33
2023-04-07T17:48:17.091Z,4.50
2023-04-07T17:50:50.594Z,3.20
2023-04-07T17:53:19.881Z,2.90
2023-04-07T17:55:49.811Z,3.43
2023-04-07T17:58:21.046Z,3.23
2023-04-07T18:00:48.656Z,5.30
2023-04-07T18:03:22.928Z,3.57
2023-04-07T18:05:53.672Z,4.40
2023-04-07T18:08:21.875Z,4.77
2023-04-07T18:10:50.800Z,3.90
2023-04-07T18:13:23.727Z,4.00
2023-04-07T18:15:51.968Z,3.93
2023-04-07T18:18:20.505Z,3.63
2023-04-07T18:20:53.167Z,4.23
2023-04-07T18:23:28.542Z,6.67
2023-04-07T18:25:56.620Z,5.63
2023-04-07T18:28:25.996Z,2.97
2023-04-07T18:31:42.056Z,3.00
2023-04-07T18:34:13.617Z,5.83
2023-04-07T18:36:43.222Z,3.70
2023-04-07T18:39:11.638Z,4.17
2023-04-07T18:41:44.449Z,4.73
2023-04-07T18:44:13.588Z,4.10
2023-04-07T18:46:41.635Z,4.30
2023-04-07T18:49:10.546Z,3.67
2023-04-07T19:18:22.694Z,2.93
2023-04-07T19:48:38.490Z,3.57
2023-04-07T20:00:40.163Z,4.13
2023-04-07T20:03:43.541Z,4.17
2023-04-07T20:06:29.765Z,3.93
2023-04-07T20:09:03.386Z,3.97
2023-04-07T20:12:05.044Z,3.37
2023-04-07T20:14:51.717Z,3.63
2023-04-07T20:18:11.206Z,3.40
2023-04-07T20:27:55.282Z,3.90
2023-04-07T20:30:36.868Z,3.70
2023-04-07T20:33:11.316Z,3.50
2023-04-07T20:35:49.044Z,3.90
2023-04-07T20:38:34.768Z,3.83
2023-04-07T20:41:18.614Z,4.50
2023-04-07T20:43:57.084Z,4.53
2023-04-07T20:53:32.281Z,4.90
2023-04-07T23:19:25.044Z,5.70
2023-04-07T23:22:08.834Z,5.40
